﻿<?xml version="1.0" encoding="UTF-8"?>
<gpx xmlns="http://www.topografix.com/GPX/1/0" xmlns:xsi="http://www.w3.org/2001/XMLSchema-instance" xsi:schemaLocation="http://www.topografix.com/GPX/1/0 http://www.topografix.com/GPX/1/0/gpx.xsd" creator="Bike Route Toaster http://www.bikeroutetoaster.com" version="1.0">
  <trk>
    <name>Toaster Course</name>
    <trkseg>
      <trkpt lat="47.77314" lon="9.60471">
        <ele>429</ele>
        <time>2011-04-16T00:00:00Z</time>
        <course>215.637724222879</course>
        <speed>8.31808511866478</speed>
      </trkpt>
      <trkpt lat="47.76936" lon="9.60132">
        <ele>427</ele>
        <time>2011-04-16T00:00:58Z</time>
        <course>226.628086956438</course>
        <speed>8.31809392746674</speed>
      </trkpt>
      <trkpt lat="47.76806" lon="9.5996">
        <ele>427</ele>
        <time>2011-04-16T00:01:22Z</time>
        <course>264.605440700724</course>
        <speed>8.31943226374677</speed>
      </trkpt>
      <trkpt lat="47.76795" lon="9.59815">
        <ele>426</ele>
        <time>2011-04-16T00:01:35Z</time>
        <course>197.248582481726</course>
        <speed>8.31797304481131</speed>
      </trkpt>
      <trkpt lat="47.76728" lon="9.59789">
        <ele>426</ele>
        <time>2011-04-16T00:01:44Z</time>
        <course>266.69511631659</course>
        <speed>8.31858241020468</speed>
      </trkpt>
      <trkpt lat="47.76722" lon="9.5966">
        <ele>426</ele>
        <time>2011-04-16T00:01:56Z</time>
        <course>185.759153501308</course>
        <speed>8.31759103087717</speed>
      </trkpt>
      <trkpt lat="47.76587" lon="9.59643">
        <ele>426</ele>
        <time>2011-04-16T00:02:14Z</time>
        <course>282.362506895201</course>
        <speed>8.31975649592126</speed>
      </trkpt>
      <trkpt lat="47.76611" lon="9.59506">
        <ele>426</ele>
        <time>2011-04-16T00:02:26Z</time>
        <course>289.447831514748</course>
        <speed>8.31937298297371</speed>
      </trkpt>
      <trkpt lat="47.76624" lon="9.5946">
        <ele>426</ele>
        <time>2011-04-16T00:02:31Z</time>
        <course>339.720182269759</course>
        <speed>8.31030650382208</speed>
      </trkpt>
      <trkpt lat="47.76637" lon="9.59454">
        <ele>426</ele>
        <time>2011-04-16T00:02:33Z</time>
        <course>25.8266480467393</course>
        <speed>8.31876930605426</speed>
      </trkpt>
      <trkpt lat="47.76718" lon="9.59503">
        <ele>426</ele>
        <time>2011-04-16T00:02:44Z</time>
        <course>323.64912214918</course>
        <speed>8.31101337593242</speed>
      </trkpt>
      <trkpt lat="47.76743" lon="9.5948">
        <ele>425</ele>
        <time>2011-04-16T00:02:48Z</time>
        <course>249.051395996254</course>
        <speed>8.31581704887221</speed>
      </trkpt>
      <trkpt lat="47.76724" lon="9.59418">
        <ele>425</ele>
        <time>2011-04-16T00:02:55Z</time>
        <course>224.729297056143</course>
        <speed>8.31902751115117</speed>
      </trkpt>
      <trkpt lat="47.76665" lon="9.59345">
        <ele>425</ele>
        <time>2011-04-16T00:03:05Z</time>
        <course>293.653766556894</course>
        <speed>8.31708188760774</speed>
      </trkpt>
      <trkpt lat="47.7675" lon="9.59102">
        <ele>424</ele>
        <time>2011-04-16T00:03:29Z</time>
        <course>256.92261483358</course>
        <speed>6.02052549494899</speed>
      </trkpt>
      <trkpt lat="47.76734" lon="9.59016">
        <ele>425</ele>
        <time>2011-04-16T00:03:40Z</time>
        <course>271.690812123005</course>
        <speed>6.02194698102376</speed>
      </trkpt>
      <trkpt lat="47.7674" lon="9.58755">
        <ele>429</ele>
        <time>2011-04-16T00:04:13Z</time>
        <course>244.34160782693</course>
        <speed>3.91341631410254</speed>
      </trkpt>
      <trkpt lat="47.76705" lon="9.58664">
        <ele>433</ele>
        <time>2011-04-16T00:04:33Z</time>
        <course>291.613711496002</course>
        <speed>3.91292126203211</speed>
      </trkpt>
      <trkpt lat="47.76743" lon="9.58544">
        <ele>439</ele>
        <time>2011-04-16T00:04:58Z</time>
        <course>293.204502104084</course>
        <speed>6.27283827167099</speed>
      </trkpt>
      <trkpt lat="47.76793" lon="9.58398">
        <ele>441</ele>
        <time>2011-04-16T00:05:18Z</time>
        <course>277.244758447922</course>
        <speed>8.31624629190381</speed>
      </trkpt>
      <trkpt lat="47.76809" lon="9.5824">
        <ele>440</ele>
        <time>2011-04-16T00:05:32Z</time>
        <course>272.576797792379</course>
        <speed>6.33645164943557</speed>
      </trkpt>
      <trkpt lat="47.76813" lon="9.58128">
        <ele>441</ele>
        <time>2011-04-16T00:05:45Z</time>
        <course>256.858025792431</course>
        <speed>6.33514714360037</speed>
      </trkpt>
      <trkpt lat="47.76787" lon="9.57989">
        <ele>443</ele>
        <time>2011-04-16T00:06:02Z</time>
        <course>317.206664025203</course>
        <speed>5.0669058114169</speed>
      </trkpt>
      <trkpt lat="47.76806" lon="9.57967">
        <ele>443</ele>
        <time>2011-04-16T00:06:08Z</time>
        <course>292.163677796078</course>
        <speed>5.06890109036772</speed>
      </trkpt>
      <trkpt lat="47.7682" lon="9.57924">
        <ele>445</ele>
        <time>2011-04-16T00:06:15Z</time>
        <course>315.842395495823</course>
        <speed>5.06869971100761</speed>
      </trkpt>
      <trkpt lat="47.76885" lon="9.57845">
        <ele>448</ele>
        <time>2011-04-16T00:06:33Z</time>
        <course>291.370634921755</course>
        <speed>4.89898274611958</speed>
      </trkpt>
      <trkpt lat="47.76905" lon="9.57781">
        <ele>449</ele>
        <time>2011-04-16T00:06:44Z</time>
        <course>281.188643629468</course>
        <speed>4.89696882463889</speed>
      </trkpt>
      <trkpt lat="47.76914" lon="9.57724">
        <ele>451</ele>
        <time>2011-04-16T00:06:53Z</time>
        <course>293.191564484122</course>
        <speed>4.89945296336877</speed>
      </trkpt>
      <trkpt lat="47.76968" lon="9.57566">
        <ele>456</ele>
        <time>2011-04-16T00:07:20Z</time>
        <course>301.097084366895</course>
        <speed>5.64396887751233</speed>
      </trkpt>
      <trkpt lat="47.76994" lon="9.57512">
        <ele>457</ele>
        <time>2011-04-16T00:07:28Z</time>
        <course>294.683418814988</course>
        <speed>5.64244766058191</speed>
      </trkpt>
      <trkpt lat="47.77027" lon="9.57422">
        <ele>459</ele>
        <time>2011-04-16T00:07:42Z</time>
        <course>255.716626639383</course>
        <speed>7.18208982428446</speed>
      </trkpt>
      <trkpt lat="47.77015" lon="9.57363">
        <ele>459</ele>
        <time>2011-04-16T00:07:48Z</time>
        <course>237.657791755474</course>
        <speed>7.17748189962407</speed>
      </trkpt>
      <trkpt lat="47.76972" lon="9.57278">
        <ele>460</ele>
        <time>2011-04-16T00:08:00Z</time>
        <course>295.826768129569</course>
        <speed>7.55060955908354</speed>
      </trkpt>
      <trkpt lat="47.76989" lon="9.57234">
        <ele>460</ele>
        <time>2011-04-16T00:08:05Z</time>
        <course>319.145947718812</course>
        <speed>7.54900506640495</speed>
      </trkpt>
      <trkpt lat="47.77013" lon="9.57208">
        <ele>460</ele>
        <time>2011-04-16T00:08:09Z</time>
        <course>347.549877179893</course>
        <speed>7.55307484525023</speed>
      </trkpt>
      <trkpt lat="47.77125" lon="9.57177">
        <ele>461</ele>
        <time>2011-04-16T00:08:26Z</time>
        <course>349.494114697354</course>
        <speed>8.32387645681391</speed>
      </trkpt>
      <trkpt lat="47.77168" lon="9.57167">
        <ele>461</ele>
        <time>2011-04-16T00:08:31Z</time>
        <course>350.942317892899</course>
        <speed>8.3219494057082</speed>
      </trkpt>
      <trkpt lat="47.77223" lon="9.57156">
        <ele>461</ele>
        <time>2011-04-16T00:08:39Z</time>
        <course>352.571812066662</course>
        <speed>7.1660233274164</speed>
      </trkpt>
      <trkpt lat="47.77278" lon="9.57147">
        <ele>461</ele>
        <time>2011-04-16T00:08:47Z</time>
        <course>321.466858590395</course>
        <speed>7.16688800300019</speed>
      </trkpt>
      <trkpt lat="47.77325" lon="9.571">
        <ele>462</ele>
        <time>2011-04-16T00:08:56Z</time>
        <course>312.747851928459</course>
        <speed>4.74082032505719</speed>
      </trkpt>
      <trkpt lat="47.77364" lon="9.57047">
        <ele>464</ele>
        <time>2011-04-16T00:09:09Z</time>
        <course>288.093266131877</course>
        <speed>4.74366976328228</speed>
      </trkpt>
      <trkpt lat="47.77377" lon="9.56997">
        <ele>465</ele>
        <time>2011-04-16T00:09:17Z</time>
        <course>304.296015105684</course>
        <speed>4.73900510157815</speed>
      </trkpt>
      <trkpt lat="47.77396" lon="9.56962">
        <ele>467</ele>
        <time>2011-04-16T00:09:24Z</time>
        <course>284.679326550371</course>
        <speed>4.83202038306667</speed>
      </trkpt>
      <trkpt lat="47.77411" lon="9.5689">
        <ele>469</ele>
        <time>2011-04-16T00:09:36Z</time>
        <course>270.019076569535</course>
        <speed>4.83215642030617</speed>
      </trkpt>
      <trkpt lat="47.77411" lon="9.5678">
        <ele>472</ele>
        <time>2011-04-16T00:09:53Z</time>
        <course>244.314732076955</course>
        <speed>7.56519534561193</speed>
      </trkpt>
      <trkpt lat="47.77393" lon="9.56733">
        <ele>472</ele>
        <time>2011-04-16T00:09:58Z</time>
        <course>243.235204520518</course>
        <speed>7.56423864084839</speed>
      </trkpt>
      <trkpt lat="47.77319" lon="9.56549">
        <ele>473</ele>
        <time>2011-04-16T00:10:19Z</time>
        <course>243.036481856207</course>
        <speed>4.63905992297744</speed>
      </trkpt>
      <trkpt lat="47.77237" lon="9.56347">
        <ele>480</ele>
        <time>2011-04-16T00:10:57Z</time>
        <course>247.224249372055</course>
        <speed>7.15844173174671</speed>
      </trkpt>
      <trkpt lat="47.77138" lon="9.56052">
        <ele>482</ele>
        <time>2011-04-16T00:11:32Z</time>
        <course>238.479452245348</course>
        <speed>6.22950736464232</speed>
      </trkpt>
      <trkpt lat="47.77115" lon="9.56005">
        <ele>482</ele>
        <time>2011-04-16T00:11:39Z</time>
        <course>249.613465396724</course>
        <speed>6.22554787981705</speed>
      </trkpt>
      <trkpt lat="47.77066" lon="9.5584">
        <ele>485</ele>
        <time>2011-04-16T00:12:00Z</time>
        <course>244.247210958275</course>
        <speed>5.35948708608128</speed>
      </trkpt>
      <trkpt lat="47.76985" lon="9.5563">
        <ele>490</ele>
        <time>2011-04-16T00:12:34Z</time>
        <course>241.025834104876</course>
        <speed>5.51940797039138</speed>
      </trkpt>
      <trkpt lat="47.76868" lon="9.55366">
        <ele>496</ele>
        <time>2011-04-16T00:13:17Z</time>
        <course>239.595353503383</course>
        <speed>5.65388718369988</speed>
      </trkpt>
      <trkpt lat="47.76822" lon="9.55268">
        <ele>498</ele>
        <time>2011-04-16T00:13:33Z</time>
        <course>236.19448204509</course>
        <speed>5.65378299286165</speed>
      </trkpt>
      <trkpt lat="47.76777" lon="9.55184">
        <ele>500</ele>
        <time>2011-04-16T00:13:47Z</time>
        <course>233.308784160661</course>
        <speed>7.33725785314626</speed>
      </trkpt>
      <trkpt lat="47.76509" lon="9.54736">
        <ele>503</ele>
        <time>2011-04-16T00:14:48Z</time>
        <course>231.184371977981</course>
        <speed>7.77785284940024</speed>
      </trkpt>
      <trkpt lat="47.7633" lon="9.54459">
        <ele>504</ele>
        <time>2011-04-16T00:15:25Z</time>
        <course>241.092369635755</course>
        <speed>6.3289931944986</speed>
      </trkpt>
      <trkpt lat="47.76267" lon="9.54317">
        <ele>506</ele>
        <time>2011-04-16T00:15:45Z</time>
        <course>230.945935916507</course>
        <speed>8.31844167375517</speed>
      </trkpt>
      <trkpt lat="47.76145" lon="9.5413">
        <ele>506</ele>
        <time>2011-04-16T00:16:08Z</time>
        <course>319.147101077689</course>
        <speed>6.17932495602483</speed>
      </trkpt>
      <trkpt lat="47.7621" lon="9.5406">
        <ele>507</ele>
        <time>2011-04-16T00:16:23Z</time>
        <course>235.397722016784</course>
        <speed>6.17748990458155</speed>
      </trkpt>
      <trkpt lat="47.76129" lon="9.53914">
        <ele>510</ele>
        <time>2011-04-16T00:16:46Z</time>
        <course>219.668916020702</course>
        <speed>8.31578529519532</speed>
      </trkpt>
      <trkpt lat="47.76032" lon="9.53814">
        <ele>509</ele>
        <time>2011-04-16T00:17:01Z</time>
        <course>263.554470696494</course>
        <speed>4.97996487984857</speed>
      </trkpt>
      <trkpt lat="47.7603" lon="9.53792">
        <ele>509</ele>
        <time>2011-04-16T00:17:05Z</time>
        <course>302.69772233363</course>
        <speed>4.98201468669055</speed>
      </trkpt>
      <trkpt lat="47.76046" lon="9.53761">
        <ele>510</ele>
        <time>2011-04-16T00:17:11Z</time>
        <course>291.384303428237</course>
        <speed>4.97977206670353</speed>
      </trkpt>
      <trkpt lat="47.76074" lon="9.53672">
        <ele>513</ele>
        <time>2011-04-16T00:17:25Z</time>
        <course>282.711052958024</course>
        <speed>5.37020358335875</speed>
      </trkpt>
      <trkpt lat="47.76108" lon="9.53484">
        <ele>517</ele>
        <time>2011-04-16T00:17:52Z</time>
        <course>291.564415110896</course>
        <speed>7.30942740725723</speed>
      </trkpt>
      <trkpt lat="47.76128" lon="9.53421">
        <ele>517</ele>
        <time>2011-04-16T00:17:59Z</time>
        <course>282.406010180846</course>
        <speed>7.30536049159807</speed>
      </trkpt>
      <trkpt lat="47.76149" lon="9.53302">
        <ele>518</ele>
        <time>2011-04-16T00:18:12Z</time>
        <course>296.585923063825</course>
        <speed>8.31789216402135</speed>
      </trkpt>
      <trkpt lat="47.76196" lon="9.53185">
        <ele>517</ele>
        <time>2011-04-16T00:18:24Z</time>
        <course>287.092153476265</course>
        <speed>8.32102385925204</speed>
      </trkpt>
      <trkpt lat="47.76232" lon="9.53039">
        <ele>516</ele>
        <time>2011-04-16T00:18:38Z</time>
        <course>292.795394287474</course>
        <speed>8.31802819405867</speed>
      </trkpt>
      <trkpt lat="47.76261" lon="9.52953">
        <ele>516</ele>
        <time>2011-04-16T00:18:47Z</time>
        <course>280.498775908605</course>
        <speed>8.32033606701097</speed>
      </trkpt>
      <trkpt lat="47.76284" lon="9.52798">
        <ele>516</ele>
        <time>2011-04-16T00:19:01Z</time>
        <course>286.072530838153</course>
        <speed>7.30347077537952</speed>
      </trkpt>
      <trkpt lat="47.76326" lon="9.52616">
        <ele>517</ele>
        <time>2011-04-16T00:19:21Z</time>
        <course>300.053407114519</course>
        <speed>7.16300560086573</speed>
      </trkpt>
      <trkpt lat="47.76371" lon="9.52519">
        <ele>517</ele>
        <time>2011-04-16T00:19:33Z</time>
        <course>274.463199834061</course>
        <speed>7.15857221969999</speed>
      </trkpt>
      <trkpt lat="47.76374" lon="9.52471">
        <ele>518</ele>
        <time>2011-04-16T00:19:38Z</time>
        <course>253.352977344095</course>
        <speed>8.31361965581232</speed>
      </trkpt>
      <trkpt lat="47.76362" lon="9.52421">
        <ele>518</ele>
        <time>2011-04-16T00:19:43Z</time>
        <course>265.791310492758</course>
        <speed>8.31591720724948</speed>
      </trkpt>
      <trkpt lat="47.76355" lon="9.52303">
        <ele>518</ele>
        <time>2011-04-16T00:19:54Z</time>
        <course>282.408067993021</course>
        <speed>7.13492485523375</speed>
      </trkpt>
      <trkpt lat="47.76358" lon="9.52286">
        <ele>518</ele>
        <time>2011-04-16T00:19:55Z</time>
        <course>327.308991864493</course>
        <speed>7.12812616670997</speed>
      </trkpt>
      <trkpt lat="47.76368" lon="9.52278">
        <ele>518</ele>
        <time>2011-04-16T00:19:57Z</time>
        <course>22.7008660102567</course>
        <speed>7.12301976795393</speed>
      </trkpt>
      <trkpt lat="47.76548" lon="9.52372">
        <ele>520</ele>
        <time>2011-04-16T00:20:27Z</time>
        <course>27.2705157075691</course>
        <speed>8.31493627967749</speed>
      </trkpt>
      <trkpt lat="47.76621" lon="9.52419">
        <ele>520</ele>
        <time>2011-04-16T00:20:38Z</time>
        <course>14.4270146623544</course>
        <speed>8.32195259903291</speed>
      </trkpt>
      <trkpt lat="47.76677" lon="9.52437">
        <ele>520</ele>
        <time>2011-04-16T00:20:45Z</time>
        <course>334.351392327482</course>
        <speed>8.32056508112078</speed>
      </trkpt>
      <trkpt lat="47.76692" lon="9.52428">
        <ele>520</ele>
        <time>2011-04-16T00:20:47Z</time>
        <course>308.74191793199</course>
        <speed>8.32031986606783</speed>
      </trkpt>
      <trkpt lat="47.76801" lon="9.52258">
        <ele>520</ele>
        <time>2011-04-16T00:21:08Z</time>
        <course>326.339693265582</course>
        <speed>8.32136702107699</speed>
      </trkpt>
      <trkpt lat="47.76873" lon="9.52198">
        <ele>520</ele>
        <time>2011-04-16T00:21:19Z</time>
        <course>15.2333696895507</course>
        <speed>8.31806108702562</speed>
      </trkpt>
      <trkpt lat="47.77002" lon="9.52242">
        <ele>520</ele>
        <time>2011-04-16T00:21:37Z</time>
        <course>302.059415736092</course>
        <speed>8.30051888750146</speed>
      </trkpt>
      <trkpt lat="47.77009" lon="9.52228">
        <ele>520</ele>
        <time>2011-04-16T00:21:39Z</time>
        <course>331.558915255442</course>
        <speed>8.32036027711256</speed>
      </trkpt>
      <trkpt lat="47.77037" lon="9.52209">
        <ele>520</ele>
        <time>2011-04-16T00:21:43Z</time>
        <course>295.477969929517</course>
        <speed>8.32147657638327</speed>
      </trkpt>
      <trkpt lat="47.77075" lon="9.52109">
        <ele>520</ele>
        <time>2011-04-16T00:21:53Z</time>
        <course>306.271820764297</course>
        <speed>8.32083803242439</speed>
      </trkpt>
      <trkpt lat="47.77099" lon="9.52068">
        <ele>520</ele>
        <time>2011-04-16T00:21:58Z</time>
        <course>320.351838243313</course>
        <speed>8.32141082557813</speed>
      </trkpt>
      <trkpt lat="47.77175" lon="9.51989">
        <ele>520</ele>
        <time>2011-04-16T00:22:10Z</time>
        <course>309.920840828735</course>
        <speed>8.3186985659665</speed>
      </trkpt>
      <trkpt lat="47.77237" lon="9.51896">
        <ele>520</ele>
        <time>2011-04-16T00:22:22Z</time>
        <course>335.519114729952</course>
        <speed>8.31151550608461</speed>
      </trkpt>
      <trkpt lat="47.77265" lon="9.5188">
        <ele>520</ele>
        <time>2011-04-16T00:22:26Z</time>
        <course>11.7663286331383</course>
        <speed>6.05076608437497</speed>
      </trkpt>
      <trkpt lat="47.7733" lon="9.51897">
        <ele>521</ele>
        <time>2011-04-16T00:22:38Z</time>
        <course>37.3941305030482</course>
        <speed>6.04388639871939</speed>
      </trkpt>
      <trkpt lat="47.77355" lon="9.51921">
        <ele>522</ele>
        <time>2011-04-16T00:22:44Z</time>
        <course>306.583475331441</course>
        <speed>3.49472957960431</speed>
      </trkpt>
      <trkpt lat="47.77368" lon="9.51899">
        <ele>523</ele>
        <time>2011-04-16T00:22:50Z</time>
        <course>293.717507990326</course>
        <speed>3.49686664370733</speed>
      </trkpt>
      <trkpt lat="47.77419" lon="9.51753">
        <ele>532</ele>
        <time>2011-04-16T00:23:25Z</time>
        <course>310.781747318383</course>
        <speed>3.63757757936253</speed>
      </trkpt>
      <trkpt lat="47.77478" lon="9.51667">
        <ele>537</ele>
        <time>2011-04-16T00:23:50Z</time>
        <course>341.177255065903</course>
        <speed>3.63802328638424</speed>
      </trkpt>
      <trkpt lat="47.77506" lon="9.51655">
        <ele>540</ele>
        <time>2011-04-16T00:23:59Z</time>
        <course>23.6237618991354</course>
        <speed>4.0710562489061</speed>
      </trkpt>
      <trkpt lat="47.77526" lon="9.51666">
        <ele>541</ele>
        <time>2011-04-16T00:24:05Z</time>
        <course>348.029521813918</course>
        <speed>4.07546141236954</speed>
      </trkpt>
      <trkpt lat="47.77556" lon="9.51658">
        <ele>543</ele>
        <time>2011-04-16T00:24:13Z</time>
        <course>327.491777597708</course>
        <speed>4.0736664619928</speed>
      </trkpt>
      <trkpt lat="47.77647" lon="9.51585">
        <ele>549</ele>
        <time>2011-04-16T00:24:42Z</time>
        <course>296.411705375084</course>
        <speed>2.75686213730078</speed>
      </trkpt>
      <trkpt lat="47.77688" lon="9.51481">
        <ele>558</ele>
        <time>2011-04-16T00:25:14Z</time>
        <course>287.2137723632</course>
        <speed>2.75755155046543</speed>
      </trkpt>
      <trkpt lat="47.77703" lon="9.5142">
        <ele>563</ele>
        <time>2011-04-16T00:25:32Z</time>
        <course>300.663628029757</course>
        <speed>4.50187539902013</speed>
      </trkpt>
      <trkpt lat="47.77735" lon="9.51352">
        <ele>565</ele>
        <time>2011-04-16T00:25:46Z</time>
        <course>290.652481212927</course>
        <speed>4.50190174052739</speed>
      </trkpt>
      <trkpt lat="47.77764" lon="9.51255">
        <ele>569</ele>
        <time>2011-04-16T00:26:03Z</time>
        <course>40.3773416172061</course>
        <speed>8.33465173814582</speed>
      </trkpt>
      <trkpt lat="47.77778" lon="9.5127">
        <ele>569</ele>
        <time>2011-04-16T00:26:06Z</time>
        <course>28.7282415713152</course>
        <speed>8.31878067527618</speed>
      </trkpt>
      <trkpt lat="47.77833" lon="9.51308">
        <ele>569</ele>
        <time>2011-04-16T00:26:14Z</time>
        <course>18.0870240367174</course>
        <speed>8.32282061314655</speed>
      </trkpt>
      <trkpt lat="47.77867" lon="9.51322">
        <ele>569</ele>
        <time>2011-04-16T00:26:18Z</time>
        <course>357.996894963905</course>
        <speed>5.00627809754616</speed>
      </trkpt>
      <trkpt lat="47.77935" lon="9.51319">
        <ele>571</ele>
        <time>2011-04-16T00:26:33Z</time>
        <course>346.284328612166</course>
        <speed>5.00538926780797</speed>
      </trkpt>
      <trkpt lat="47.78081" lon="9.51274">
        <ele>577</ele>
        <time>2011-04-16T00:27:07Z</time>
        <course>338.410906320832</course>
        <speed>4.83826180470017</speed>
      </trkpt>
      <trkpt lat="47.78151" lon="9.51239">
        <ele>579</ele>
        <time>2011-04-16T00:27:24Z</time>
        <course>315.314439764763</course>
        <speed>4.83724885264655</speed>
      </trkpt>
      <trkpt lat="47.78171" lon="9.51214">
        <ele>581</ele>
        <time>2011-04-16T00:27:30Z</time>
        <course>276.807957703017</course>
        <speed>8.32543021198186</speed>
      </trkpt>
      <trkpt lat="47.78176" lon="9.51161">
        <ele>580</ele>
        <time>2011-04-16T00:27:34Z</time>
        <course>243.185525391829</course>
        <speed>8.35538109078278</speed>
      </trkpt>
      <trkpt lat="47.78172" lon="9.51151">
        <ele>580</ele>
        <time>2011-04-16T00:27:35Z</time>
        <course>52.3739149762608</course>
        <speed>8.31774734172722</speed>
      </trkpt>
      <trkpt lat="47.78197" lon="9.51192">
        <ele>580</ele>
        <time>2011-04-16T00:27:40Z</time>
        <course>33.2733270514134</course>
        <speed>8.31657487076664</speed>
      </trkpt>
      <trkpt lat="47.78244" lon="9.51231">
        <ele>580</ele>
        <time>2011-04-16T00:27:48Z</time>
        <course>67.9661324722514</course>
        <speed>8.30335539673129</speed>
      </trkpt>
      <trkpt lat="47.78252" lon="9.51256">
        <ele>580</ele>
        <time>2011-04-16T00:27:50Z</time>
        <course>101.477118003183</course>
        <speed>8.31581010750129</speed>
      </trkpt>
      <trkpt lat="47.78243" lon="9.51312">
        <ele>580</ele>
        <time>2011-04-16T00:27:55Z</time>
        <course>24.167681810837</course>
        <speed>7.21359093771574</speed>
      </trkpt>
      <trkpt lat="47.7828" lon="9.51333">
        <ele>580</ele>
        <time>2011-04-16T00:28:01Z</time>
        <course>63.7219588756356</course>
        <speed>7.21007526336338</speed>
      </trkpt>
      <trkpt lat="47.78296" lon="9.51374">
        <ele>580</ele>
        <time>2011-04-16T00:28:06Z</time>
        <course>53.3359475622108</course>
        <speed>7.20936183394674</speed>
      </trkpt>
      <trkpt lat="47.78326" lon="9.51425">
        <ele>581</ele>
        <time>2011-04-16T00:28:13Z</time>
        <course>61.518291738077</course>
        <speed>8.31486891372833</speed>
      </trkpt>
      <trkpt lat="47.78353" lon="9.51488">
        <ele>581</ele>
        <time>2011-04-16T00:28:20Z</time>
        <course>39.5770262160204</course>
        <speed>8.32083116314311</speed>
      </trkpt>
      <trkpt lat="47.78396" lon="9.51533">
        <ele>581</ele>
        <time>2011-04-16T00:28:27Z</time>
        <course>133.511901094979</course>
        <speed>7.39798065743712</speed>
      </trkpt>
      <trkpt lat="47.7839" lon="9.51541">
        <ele>581</ele>
        <time>2011-04-16T00:28:28Z</time>
        <course>360</course>
        <speed>7.40800000049435</speed>
      </trkpt>
      <trkpt lat="47.78399" lon="9.51541">
        <ele>581</ele>
        <time>2011-04-16T00:28:29Z</time>
        <course>58.7095425811336</course>
        <speed>7.37611390823106</speed>
      </trkpt>
      <trkpt lat="47.78411" lon="9.51566">
        <ele>581</ele>
        <time>2011-04-16T00:28:33Z</time>
        <course>39.2378996534827</course>
        <speed>7.38553378939926</speed>
      </trkpt>
      <trkpt lat="47.78497" lon="9.51655">
        <ele>582</ele>
        <time>2011-04-16T00:28:48Z</time>
        <course>70.9369239858709</course>
        <speed>8.28384351460844</speed>
      </trkpt>
      <trkpt lat="47.785" lon="9.51666">
        <ele>582</ele>
        <time>2011-04-16T00:28:49Z</time>
        <course>37.8750771074767</course>
        <speed>8.31669398149175</speed>
      </trkpt>
      <trkpt lat="47.78572" lon="9.51737">
        <ele>582</ele>
        <time>2011-04-16T00:29:01Z</time>
        <course>17.2862573080422</course>
        <speed>7.39805487757004</speed>
      </trkpt>
      <trkpt lat="47.78648" lon="9.51767">
        <ele>582</ele>
        <time>2011-04-16T00:29:13Z</time>
        <course>188.160325101473</course>
        <speed>7.39583842231321</speed>
      </trkpt>
      <trkpt lat="47.78604" lon="9.51759">
        <ele>582</ele>
        <time>2011-04-16T00:29:19Z</time>
        <course>16.6162414910548</course>
        <speed>7.39916132681914</speed>
      </trkpt>
      <trkpt lat="47.78765" lon="9.5182">
        <ele>584</ele>
        <time>2011-04-16T00:29:44Z</time>
        <course>44.6524440864292</course>
        <speed>6.37308131820553</speed>
      </trkpt>
      <trkpt lat="47.78855" lon="9.51933">
        <ele>586</ele>
        <time>2011-04-16T00:30:05Z</time>
        <course>54.6826874552521</course>
        <speed>8.32244518203293</speed>
      </trkpt>
      <trkpt lat="47.78889" lon="9.51994">
        <ele>586</ele>
        <time>2011-04-16T00:30:12Z</time>
        <course>30.1022596637865</course>
        <speed>8.32450209459769</speed>
      </trkpt>
      <trkpt lat="47.78908" lon="9.52008">
        <ele>586</ele>
        <time>2011-04-16T00:30:15Z</time>
        <course>66.5256700891754</course>
        <speed>8.32077947079597</speed>
      </trkpt>
      <trkpt lat="47.78951" lon="9.52134">
        <ele>586</ele>
        <time>2011-04-16T00:30:28Z</time>
        <course>58.4495592928088</course>
        <speed>8.31576442139478</speed>
      </trkpt>
      <trkpt lat="47.79006" lon="9.52248">
        <ele>584</ele>
        <time>2011-04-16T00:30:40Z</time>
        <course>48.2334332276086</course>
        <speed>8.31541363939544</speed>
      </trkpt>
      <trkpt lat="47.79046" lon="9.52305">
        <ele>582</ele>
        <time>2011-04-16T00:30:48Z</time>
        <course>37.0181065984809</course>
        <speed>8.31666146731316</speed>
      </trkpt>
      <trkpt lat="47.79147" lon="9.52402">
        <ele>580</ele>
        <time>2011-04-16T00:31:04Z</time>
        <course>55.5480269402386</course>
        <speed>8.31379635786855</speed>
      </trkpt>
      <trkpt lat="47.79182" lon="9.52467">
        <ele>580</ele>
        <time>2011-04-16T00:31:11Z</time>
        <course>83.7305268051885</course>
        <speed>8.32275394415112</speed>
      </trkpt>
      <trkpt lat="47.7919" lon="9.5256">
        <ele>580</ele>
        <time>2011-04-16T00:31:19Z</time>
        <course>71.8752801827403</course>
        <speed>8.3152256952725</speed>
      </trkpt>
      <trkpt lat="47.79219" lon="9.52673">
        <ele>580</ele>
        <time>2011-04-16T00:31:30Z</time>
        <course>59.6226876916118</course>
        <speed>8.31900919976293</speed>
      </trkpt>
      <trkpt lat="47.79287" lon="9.52821">
        <ele>580</ele>
        <time>2011-04-16T00:31:46Z</time>
        <course>48.1703098462191</course>
        <speed>8.31519861838215</speed>
      </trkpt>
      <trkpt lat="47.79327" lon="9.52878">
        <ele>579</ele>
        <time>2011-04-16T00:31:54Z</time>
        <course>35.6782280991206</course>
        <speed>8.31651748003699</speed>
      </trkpt>
      <trkpt lat="47.79447" lon="9.52988">
        <ele>577</ele>
        <time>2011-04-16T00:32:13Z</time>
        <course>45.0445800969451</course>
        <speed>8.31687538808602</speed>
      </trkpt>
      <trkpt lat="47.79515" lon="9.53075">
        <ele>577</ele>
        <time>2011-04-16T00:32:25Z</time>
        <course>54.9731771467482</course>
        <speed>8.32095631197608</speed>
      </trkpt>
      <trkpt lat="47.79566" lon="9.53168">
        <ele>577</ele>
        <time>2011-04-16T00:32:35Z</time>
        <course>48.2954749834561</course>
        <speed>8.31993564769005</speed>
      </trkpt>
      <trkpt lat="47.79651" lon="9.5329">
        <ele>574</ele>
        <time>2011-04-16T00:32:51Z</time>
        <course>40.2255122987771</course>
        <speed>8.31759475804199</speed>
      </trkpt>
      <trkpt lat="47.79736" lon="9.53382">
        <ele>570</ele>
        <time>2011-04-16T00:33:05Z</time>
        <course>29.8083629036551</course>
        <speed>8.32281505239794</speed>
      </trkpt>
      <trkpt lat="47.79796" lon="9.53426">
        <ele>568</ele>
        <time>2011-04-16T00:33:14Z</time>
        <course>41.8827058241893</course>
        <speed>8.31929472971939</speed>
      </trkpt>
      <trkpt lat="47.7989" lon="9.53534">
        <ele>565</ele>
        <time>2011-04-16T00:33:30Z</time>
        <course>56.1539707272831</course>
        <speed>7.4279896411456</speed>
      </trkpt>
      <trkpt lat="47.79982" lon="9.5371">
        <ele>566</ele>
        <time>2011-04-16T00:33:52Z</time>
        <course>59.4404928814775</course>
        <speed>8.31998690642272</speed>
      </trkpt>
      <trkpt lat="47.80051" lon="9.5386">
        <ele>564</ele>
        <time>2011-04-16T00:34:09Z</time>
        <course>46.5934355940556</course>
        <speed>8.32045125300865</speed>
      </trkpt>
      <trkpt lat="47.80121" lon="9.53955">
        <ele>563</ele>
        <time>2011-04-16T00:34:21Z</time>
        <course>13.8225962977755</course>
        <speed>8.33302886484802</speed>
      </trkpt>
      <trkpt lat="47.8014" lon="9.53961">
        <ele>562</ele>
        <time>2011-04-16T00:34:24Z</time>
        <course>33.9898264030761</course>
        <speed>8.31674761573367</speed>
      </trkpt>
      <trkpt lat="47.8029" lon="9.54091">
        <ele>562</ele>
        <time>2011-04-16T00:34:47Z</time>
        <course>47.6844375389054</course>
        <speed>8.31727693926753</speed>
      </trkpt>
      <trkpt lat="47.80307" lon="9.54115">
        <ele>562</ele>
        <time>2011-04-16T00:34:50Z</time>
        <course>340.524217506659</course>
        <speed>8.29882732507101</speed>
      </trkpt>
      <trkpt lat="47.80318" lon="9.5411">
        <ele>562</ele>
        <time>2011-04-16T00:34:52Z</time>
        <course>9.03903804626692</course>
        <speed>8.32244226455656</speed>
      </trkpt>
      <trkpt lat="47.80362" lon="9.54119">
        <ele>562</ele>
        <time>2011-04-16T00:34:58Z</time>
        <course>350.88717009206</course>
        <speed>8.31468112091919</speed>
      </trkpt>
      <trkpt lat="47.80425" lon="9.54106">
        <ele>562</ele>
        <time>2011-04-16T00:35:06Z</time>
        <course>311.691769835829</course>
        <speed>7.65604756455674</speed>
      </trkpt>
      <trkpt lat="47.80434" lon="9.54093">
        <ele>562</ele>
        <time>2011-04-16T00:35:08Z</time>
        <course>272.244488306</course>
        <speed>7.64487340297276</speed>
      </trkpt>
      <trkpt lat="47.80436" lon="9.54027">
        <ele>562</ele>
        <time>2011-04-16T00:35:15Z</time>
        <course>277.769873241391</course>
        <speed>7.64977763650055</speed>
      </trkpt>
      <trkpt lat="47.80459" lon="9.53809">
        <ele>563</ele>
        <time>2011-04-16T00:35:36Z</time>
        <course>292.908833649997</course>
        <speed>8.31918142916073</speed>
      </trkpt>
      <trkpt lat="47.805" lon="9.53684">
        <ele>563</ele>
        <time>2011-04-16T00:35:49Z</time>
        <course>312.276687774008</course>
        <speed>8.31916260466277</speed>
      </trkpt>
      <trkpt lat="47.80548" lon="9.53616">
        <ele>560</ele>
        <time>2011-04-16T00:35:57Z</time>
        <course>321.394019216323</course>
        <speed>8.32223295229744</speed>
      </trkpt>
      <trkpt lat="47.80583" lon="9.5358">
        <ele>559</ele>
        <time>2011-04-16T00:36:03Z</time>
        <course>270.002166813457</course>
        <speed>8.29257948890127</speed>
      </trkpt>
      <trkpt lat="47.80583" lon="9.53568">
        <ele>557</ele>
        <time>2011-04-16T00:36:04Z</time>
        <course>317.035714373456</course>
        <speed>8.31693172242313</speed>
      </trkpt>
      <trkpt lat="47.80608" lon="9.53538">
        <ele>553</ele>
        <time>2011-04-16T00:36:08Z</time>
        <course>289.050265058318</course>
        <speed>8.31708561353431</speed>
      </trkpt>
      <trkpt lat="47.80623" lon="9.53482">
        <ele>547</ele>
        <time>2011-04-16T00:36:14Z</time>
        <course>303.245358828243</course>
        <speed>8.31757012346157</speed>
      </trkpt>
      <trkpt lat="47.80653" lon="9.53423">
        <ele>541</ele>
        <time>2011-04-16T00:36:21Z</time>
        <course>240.203849767744</course>
        <speed>8.32494564870655</speed>
      </trkpt>
      <trkpt lat="47.80637" lon="9.53387">
        <ele>539</ele>
        <time>2011-04-16T00:36:24Z</time>
        <course>302.79780261111</course>
        <speed>8.29678358886957</speed>
      </trkpt>
      <trkpt lat="47.80644" lon="9.53373">
        <ele>539</ele>
        <time>2011-04-16T00:36:26Z</time>
        <course>265.720911596878</course>
        <speed>8.31782143368656</speed>
      </trkpt>
      <trkpt lat="47.80635" lon="9.53219">
        <ele>536</ele>
        <time>2011-04-16T00:36:40Z</time>
        <course>314.583722691579</course>
        <speed>8.32304542974582</speed>
      </trkpt>
      <trkpt lat="47.80648" lon="9.53202">
        <ele>534</ele>
        <time>2011-04-16T00:36:42Z</time>
        <course>354.174037353647</course>
        <speed>8.31995375236922</speed>
      </trkpt>
      <trkpt lat="47.80724" lon="9.53192">
        <ele>526</ele>
        <time>2011-04-16T00:36:52Z</time>
        <course>331.421520742415</course>
        <speed>3.12677366949098</speed>
      </trkpt>
      <trkpt lat="47.80761" lon="9.53166">
        <ele>529</ele>
        <time>2011-04-16T00:37:07Z</time>
        <course>313.827533066162</course>
        <speed>3.12735491520213</speed>
      </trkpt>
      <trkpt lat="47.80819" lon="9.53088">
        <ele>537</ele>
        <time>2011-04-16T00:37:35Z</time>
        <course>336.857051835015</course>
        <speed>3.01942733872788</speed>
      </trkpt>
      <trkpt lat="47.80915" lon="9.53035">
        <ele>547</ele>
        <time>2011-04-16T00:38:12Z</time>
        <course>255.519246663638</course>
        <speed>8.34292346829378</speed>
      </trkpt>
      <trkpt lat="47.80912" lon="9.5302">
        <ele>546</ele>
        <time>2011-04-16T00:38:14Z</time>
        <course>308.912783563589</course>
        <speed>8.32201092323477</speed>
      </trkpt>
      <trkpt lat="47.80917" lon="9.53012">
        <ele>546</ele>
        <time>2011-04-16T00:38:15Z</time>
        <course>232.47819066469</course>
        <speed>8.32112380358964</speed>
      </trkpt>
      <trkpt lat="47.80842" lon="9.52886">
        <ele>540</ele>
        <time>2011-04-16T00:38:30Z</time>
        <course>36.5527467575607</course>
        <speed>5.48516353557841</speed>
      </trkpt>
      <trkpt lat="47.80889" lon="9.52931">
        <ele>541</ele>
        <time>2011-04-16T00:38:41Z</time>
        <course>322.254548517652</course>
        <speed>5.48444352243538</speed>
      </trkpt>
      <trkpt lat="47.80921" lon="9.52899">
        <ele>542</ele>
        <time>2011-04-16T00:38:49Z</time>
        <course>281.251194275262</course>
        <speed>5.48675281556389</speed>
      </trkpt>
      <trkpt lat="47.80931" lon="9.52834">
        <ele>544</ele>
        <time>2011-04-16T00:38:58Z</time>
        <course>277.884857355402</course>
        <speed>8.33076151999036</speed>
      </trkpt>
      <trkpt lat="47.80934" lon="9.52806">
        <ele>544</ele>
        <time>2011-04-16T00:39:01Z</time>
        <course>277.750340011738</course>
        <speed>8.32026344973807</speed>
      </trkpt>
      <trkpt lat="47.80938" lon="9.52768">
        <ele>544</ele>
        <time>2011-04-16T00:39:04Z</time>
        <course>273.005803108688</course>
        <speed>8.31633547971159</speed>
      </trkpt>
      <trkpt lat="47.80942" lon="9.52669">
        <ele>544</ele>
        <time>2011-04-16T00:39:13Z</time>
        <course>261.841610726937</course>
        <speed>6.44273979553784</speed>
      </trkpt>
      <trkpt lat="47.80936" lon="9.52615">
        <ele>544</ele>
        <time>2011-04-16T00:39:19Z</time>
        <course>276.508823724464</course>
        <speed>6.44624937949561</speed>
      </trkpt>
      <trkpt lat="47.80939" lon="9.52581">
        <ele>544</ele>
        <time>2011-04-16T00:39:23Z</time>
        <course>277.068111035445</course>
        <speed>6.44178512252802</speed>
      </trkpt>
      <trkpt lat="47.80948" lon="9.52487">
        <ele>546</ele>
        <time>2011-04-16T00:39:34Z</time>
        <course>281.192381419211</course>
        <speed>8.3177031376244</speed>
      </trkpt>
      <trkpt lat="47.8097" lon="9.52343">
        <ele>544</ele>
        <time>2011-04-16T00:39:47Z</time>
        <course>299.886543511989</course>
        <speed>3.78122770085785</speed>
      </trkpt>
      <trkpt lat="47.81006" lon="9.52262">
        <ele>548</ele>
        <time>2011-04-16T00:40:07Z</time>
        <course>160.347201904972</course>
        <speed>3.78091063911916</speed>
      </trkpt>
      <trkpt lat="47.80993" lon="9.52268">
        <ele>549</ele>
        <time>2011-04-16T00:40:11Z</time>
        <course>80.8202479298844</course>
        <speed>3.78362327130922</speed>
      </trkpt>
      <trkpt lat="47.80995" lon="9.52284">
        <ele>549</ele>
        <time>2011-04-16T00:40:14Z</time>
        <course>171.320256814224</course>
        <speed>3.78071198925988</speed>
      </trkpt>
      <trkpt lat="47.80924" lon="9.52298">
        <ele>554</ele>
        <time>2011-04-16T00:40:35Z</time>
        <course>281.837046665162</course>
        <speed>3.78242041715469</speed>
      </trkpt>
      <trkpt lat="47.8093" lon="9.52261">
        <ele>556</ele>
        <time>2011-04-16T00:40:42Z</time>
        <course>235.068790642719</course>
        <speed>3.78107511870801</speed>
      </trkpt>
      <trkpt lat="47.80897" lon="9.522">
        <ele>560</ele>
        <time>2011-04-16T00:40:58Z</time>
        <course>195.729401310015</course>
        <speed>3.02462470448203</speed>
      </trkpt>
      <trkpt lat="47.80875" lon="9.52192">
        <ele>562</ele>
        <time>2011-04-16T00:41:06Z</time>
        <course>88.620524290741</course>
        <speed>3.02211271628298</speed>
      </trkpt>
      <trkpt lat="47.80876" lon="9.52246">
        <ele>565</ele>
        <time>2011-04-16T00:41:19Z</time>
        <course>106.298058353322</course>
        <speed>3.02321586669615</speed>
      </trkpt>
      <trkpt lat="47.80859" lon="9.52321">
        <ele>570</ele>
        <time>2011-04-16T00:41:39Z</time>
        <course>123.867790064298</course>
        <speed>3.02125567130008</speed>
      </trkpt>
      <trkpt lat="47.80846" lon="9.52346">
        <ele>573</ele>
        <time>2011-04-16T00:41:47Z</time>
        <course>180</course>
        <speed>4.49208510639863</speed>
      </trkpt>
      <trkpt lat="47.80827" lon="9.52346">
        <ele>573</ele>
        <time>2011-04-16T00:41:52Z</time>
        <course>112.656349033408</course>
        <speed>4.49198522362633</speed>
      </trkpt>
      <trkpt lat="47.80816" lon="9.5238">
        <ele>575</ele>
        <time>2011-04-16T00:41:58Z</time>
        <course>137.076570985973</course>
        <speed>4.48793219146706</speed>
      </trkpt>
      <trkpt lat="47.80801" lon="9.52398">
        <ele>576</ele>
        <time>2011-04-16T00:42:03Z</time>
        <course>217.396740419502</course>
        <speed>4.49133499510484</speed>
      </trkpt>
      <trkpt lat="47.80731" lon="9.52329">
        <ele>580</ele>
        <time>2011-04-16T00:42:23Z</time>
        <course>234.319466386026</course>
        <speed>6.54552536860422</speed>
      </trkpt>
      <trkpt lat="47.80692" lon="9.52259">
        <ele>580</ele>
        <time>2011-04-16T00:42:34Z</time>
        <course>207.349075220552</course>
        <speed>6.53693632790253</speed>
      </trkpt>
      <trkpt lat="47.80668" lon="9.52243">
        <ele>581</ele>
        <time>2011-04-16T00:42:38Z</time>
        <course>306.375302469059</course>
        <speed>6.53259090987419</speed>
      </trkpt>
      <trkpt lat="47.80672" lon="9.52236">
        <ele>581</ele>
        <time>2011-04-16T00:42:39Z</time>
        <course>225.901905067645</course>
        <speed>6.54528640004416</speed>
      </trkpt>
      <trkpt lat="47.80544" lon="9.52066">
        <ele>584</ele>
        <time>2011-04-16T00:43:08Z</time>
        <course>215.080109323078</course>
        <speed>5.33094757516458</speed>
      </trkpt>
      <trkpt lat="47.80492" lon="9.52019">
        <ele>585</ele>
        <time>2011-04-16T00:43:21Z</time>
        <course>189.509677794747</course>
        <speed>5.32894438407379</speed>
      </trkpt>
      <trkpt lat="47.80362" lon="9.51991">
        <ele>590</ele>
        <time>2011-04-16T00:43:48Z</time>
        <course>201.210629060756</course>
        <speed>8.31797653822007</speed>
      </trkpt>
      <trkpt lat="47.80119" lon="9.5187">
        <ele>587</ele>
        <time>2011-04-16T00:44:23Z</time>
        <course>194.175688224729</course>
        <speed>8.3152798726147</speed>
      </trkpt>
      <trkpt lat="47.80048" lon="9.51847">
        <ele>585</ele>
        <time>2011-04-16T00:44:32Z</time>
        <course>181.540477931881</course>
        <speed>8.32905510690859</speed>
      </trkpt>
      <trkpt lat="47.80019" lon="9.51846">
        <ele>585</ele>
        <time>2011-04-16T00:44:36Z</time>
        <course>160.725579569045</course>
        <speed>8.30963682809257</speed>
      </trkpt>
      <trkpt lat="47.7999" lon="9.51859">
        <ele>584</ele>
        <time>2011-04-16T00:44:40Z</time>
        <course>143.609479863199</course>
        <speed>8.31125978733326</speed>
      </trkpt>
      <trkpt lat="47.79954" lon="9.51893">
        <ele>583</ele>
        <time>2011-04-16T00:44:46Z</time>
        <course>158.015817042627</course>
        <speed>8.32060013009518</speed>
      </trkpt>
      <trkpt lat="47.79925" lon="9.51908">
        <ele>583</ele>
        <time>2011-04-16T00:44:50Z</time>
        <course>171.595512973875</course>
        <speed>8.32230548182258</speed>
      </trkpt>
      <trkpt lat="47.79851" lon="9.51922">
        <ele>582</ele>
        <time>2011-04-16T00:45:00Z</time>
        <course>187.523295943603</course>
        <speed>8.31435106576835</speed>
      </trkpt>
      <trkpt lat="47.7978" lon="9.5191">
        <ele>582</ele>
        <time>2011-04-16T00:45:10Z</time>
        <course>164.136606144806</course>
        <speed>8.33284128450803</speed>
      </trkpt>
      <trkpt lat="47.79769" lon="9.51914">
        <ele>582</ele>
        <time>2011-04-16T00:45:11Z</time>
        <course>192.303060157717</course>
        <speed>8.32093190604752</speed>
      </trkpt>
      <trkpt lat="47.79665" lon="9.51885">
        <ele>582</ele>
        <time>2011-04-16T00:45:25Z</time>
        <course>198.517636049025</course>
        <speed>8.31944515174538</speed>
      </trkpt>
      <trkpt lat="47.79424" lon="9.51782">
        <ele>581</ele>
        <time>2011-04-16T00:45:59Z</time>
        <course>203.141062606325</course>
        <speed>7.38861401775084</speed>
      </trkpt>
      <trkpt lat="47.7929" lon="9.51709">
        <ele>582</ele>
        <time>2011-04-16T00:46:20Z</time>
        <course>209.786585790878</course>
        <speed>8.31603390092755</speed>
      </trkpt>
      <trkpt lat="47.79183" lon="9.51631">
        <ele>582</ele>
        <time>2011-04-16T00:46:36Z</time>
        <course>163.593907571619</course>
        <speed>8.33397921071578</speed>
      </trkpt>
      <trkpt lat="47.79175" lon="9.51634">
        <ele>581</ele>
        <time>2011-04-16T00:46:37Z</time>
        <course>129.957125362564</course>
        <speed>8.31699968132289</speed>
      </trkpt>
      <trkpt lat="47.79094" lon="9.51757">
        <ele>581</ele>
        <time>2011-04-16T00:46:53Z</time>
        <course>135.959349089473</course>
        <speed>4.40280249970441</speed>
      </trkpt>
      <trkpt lat="47.78985" lon="9.51891">
        <ele>588</ele>
        <time>2011-04-16T00:47:28Z</time>
        <course>141.7999993874</course>
        <speed>8.31772287273812</speed>
      </trkpt>
      <trkpt lat="47.78911" lon="9.51965">
        <ele>588</ele>
        <time>2011-04-16T00:47:40Z</time>
        <course>114.581783885244</course>
        <speed>8.30385131905524</speed>
      </trkpt>
      <trkpt lat="47.78902" lon="9.5199">
        <ele>588</ele>
        <time>2011-04-16T00:47:43Z</time>
        <course>61.8314026457768</course>
        <speed>8.31812407218145</speed>
      </trkpt>
      <trkpt lat="47.78934" lon="9.52066">
        <ele>586</ele>
        <time>2011-04-16T00:47:51Z</time>
        <course>64.5611973478994</course>
        <speed>8.31740256996383</speed>
      </trkpt>
      <trkpt lat="47.78999" lon="9.5224">
        <ele>584</ele>
        <time>2011-04-16T00:48:09Z</time>
        <course>51.508100195236</course>
        <speed>8.32364491672669</speed>
      </trkpt>
      <trkpt lat="47.79024" lon="9.5228">
        <ele>583</ele>
        <time>2011-04-16T00:48:14Z</time>
        <course>38.8688789393862</course>
        <speed>8.31693768633082</speed>
      </trkpt>
      <trkpt lat="47.79137" lon="9.52396">
        <ele>580</ele>
        <time>2011-04-16T00:48:32Z</time>
        <course>53.64868064024</course>
        <speed>8.31310144932833</speed>
      </trkpt>
      <trkpt lat="47.79163" lon="9.52441">
        <ele>580</ele>
        <time>2011-04-16T00:48:37Z</time>
        <course>68.4286691986292</course>
        <speed>8.30934226190004</speed>
      </trkpt>
      <trkpt lat="47.79172" lon="9.5247">
        <ele>580</ele>
        <time>2011-04-16T00:48:40Z</time>
        <course>79.5224355688305</course>
        <speed>8.31960895025593</speed>
      </trkpt>
      <trkpt lat="47.79193" lon="9.52615">
        <ele>580</ele>
        <time>2011-04-16T00:48:53Z</time>
        <course>62.3112582297704</course>
        <speed>8.31568310435482</speed>
      </trkpt>
      <trkpt lat="47.79214" lon="9.52666">
        <ele>579</ele>
        <time>2011-04-16T00:48:59Z</time>
        <course>56.3079438127709</course>
        <speed>8.31838305794291</speed>
      </trkpt>
      <trkpt lat="47.79319" lon="9.52867">
        <ele>579</ele>
        <time>2011-04-16T00:49:22Z</time>
        <course>43.9238615178405</course>
        <speed>8.32147408664211</speed>
      </trkpt>
      <trkpt lat="47.79354" lon="9.5291">
        <ele>578</ele>
        <time>2011-04-16T00:49:28Z</time>
        <course>30.7966072630422</course>
        <speed>8.31966592035262</speed>
      </trkpt>
      <trkpt lat="47.79446" lon="9.5298">
        <ele>578</ele>
        <time>2011-04-16T00:49:42Z</time>
        <course>52.1710128820999</course>
        <speed>8.31707801316377</speed>
      </trkpt>
      <trkpt lat="47.79562" lon="9.53171">
        <ele>577</ele>
        <time>2011-04-16T00:50:05Z</time>
        <course>48.4515556595965</course>
        <speed>8.31709670407932</speed>
      </trkpt>
      <trkpt lat="47.79641" lon="9.53285">
        <ele>574</ele>
        <time>2011-04-16T00:50:19Z</time>
        <course>41.0331997931547</course>
        <speed>8.31883431322188</speed>
      </trkpt>
      <trkpt lat="47.79729" lon="9.53383">
        <ele>570</ele>
        <time>2011-04-16T00:50:34Z</time>
        <course>33.6093700471636</course>
        <speed>8.31820277270191</speed>
      </trkpt>
      <trkpt lat="47.7985" lon="9.53486">
        <ele>566</ele>
        <time>2011-04-16T00:50:53Z</time>
        <course>45.9859698143297</course>
        <speed>8.31763680533756</speed>
      </trkpt>
      <trkpt lat="47.79896" lon="9.53547">
        <ele>566</ele>
        <time>2011-04-16T00:51:01Z</time>
        <course>54.7657293674803</course>
        <speed>8.31983448078972</speed>
      </trkpt>
      <trkpt lat="47.79972" lon="9.53685">
        <ele>566</ele>
        <time>2011-04-16T00:51:17Z</time>
        <course>60.4750841680623</course>
        <speed>8.31844133428738</speed>
      </trkpt>
      <trkpt lat="47.80047" lon="9.53855">
        <ele>564</ele>
        <time>2011-04-16T00:51:35Z</time>
        <course>48.3781436345793</course>
        <speed>8.31908593590001</speed>
      </trkpt>
      <trkpt lat="47.80101" lon="9.53933">
        <ele>562</ele>
        <time>2011-04-16T00:51:45Z</time>
        <course>30.7866906863757</course>
        <speed>8.31183483814594</speed>
      </trkpt>
      <trkpt lat="47.80135" lon="9.53959">
        <ele>562</ele>
        <time>2011-04-16T00:51:50Z</time>
        <course>42.0147242544059</course>
        <speed>8.31631019414369</speed>
      </trkpt>
      <trkpt lat="47.80186" lon="9.54018">
        <ele>561</ele>
        <time>2011-04-16T00:51:59Z</time>
        <course>33.4327232567115</course>
        <speed>8.31934574832617</speed>
      </trkpt>
      <trkpt lat="47.80285" lon="9.54102">
        <ele>561</ele>
        <time>2011-04-16T00:52:14Z</time>
        <course>54.1368194519027</course>
        <speed>8.32967492783488</speed>
      </trkpt>
      <trkpt lat="47.80294" lon="9.54118">
        <ele>560</ele>
        <time>2011-04-16T00:52:16Z</time>
        <course>96.1080805163606</course>
        <speed>8.31811427149509</speed>
      </trkpt>
      <trkpt lat="47.80292" lon="9.54142">
        <ele>560</ele>
        <time>2011-04-16T00:52:18Z</time>
        <course>132.195742384063</course>
        <speed>8.31783308297608</speed>
      </trkpt>
      <trkpt lat="47.80174" lon="9.54309">
        <ele>558</ele>
        <time>2011-04-16T00:52:40Z</time>
        <course>146.551275905192</course>
        <speed>8.31949418313734</speed>
      </trkpt>
      <trkpt lat="47.7994" lon="9.54507">
        <ele>548</ele>
        <time>2011-04-16T00:53:16Z</time>
        <course>142.30518028974</course>
        <speed>8.31620222175092</speed>
      </trkpt>
      <trkpt lat="47.79847" lon="9.54599">
        <ele>545</ele>
        <time>2011-04-16T00:53:31Z</time>
        <course>151.57550199145</course>
        <speed>8.31681686575693</speed>
      </trkpt>
      <trkpt lat="47.7973" lon="9.5468">
        <ele>541</ele>
        <time>2011-04-16T00:53:48Z</time>
        <course>141.446763121389</course>
        <speed>8.31916578647652</speed>
      </trkpt>
      <trkpt lat="47.79621" lon="9.54791">
        <ele>534</ele>
        <time>2011-04-16T00:54:06Z</time>
        <course>160.598272874867</course>
        <speed>8.32159872460185</speed>
      </trkpt>
      <trkpt lat="47.79581" lon="9.54809">
        <ele>532</ele>
        <time>2011-04-16T00:54:11Z</time>
        <course>150.037168857729</course>
        <speed>8.31818311331739</speed>
      </trkpt>
      <trkpt lat="47.79509" lon="9.54862">
        <ele>530</ele>
        <time>2011-04-16T00:54:22Z</time>
        <course>157.643697838505</course>
        <speed>8.31591164166342</speed>
      </trkpt>
      <trkpt lat="47.79408" lon="9.54915">
        <ele>529</ele>
        <time>2011-04-16T00:54:36Z</time>
        <course>139.697828922854</course>
        <speed>8.31960124951601</speed>
      </trkpt>
      <trkpt lat="47.79359" lon="9.54968">
        <ele>527</ele>
        <time>2011-04-16T00:54:44Z</time>
        <course>157.872522699776</course>
        <speed>8.31690808326515</speed>
      </trkpt>
      <trkpt lat="47.79332" lon="9.54982">
        <ele>527</ele>
        <time>2011-04-16T00:54:48Z</time>
        <course>141.871147370958</course>
        <speed>8.32100928503136</speed>
      </trkpt>
      <trkpt lat="47.79241" lon="9.55073">
        <ele>525</ele>
        <time>2011-04-16T00:55:03Z</time>
        <course>162.467236748741</course>
        <speed>8.31753424830296</speed>
      </trkpt>
      <trkpt lat="47.79154" lon="9.55108">
        <ele>525</ele>
        <time>2011-04-16T00:55:15Z</time>
        <course>168.16162267137</course>
        <speed>8.31596552380828</speed>
      </trkpt>
      <trkpt lat="47.79034" lon="9.5514">
        <ele>524</ele>
        <time>2011-04-16T00:55:31Z</time>
        <course>151.538821029508</course>
        <speed>8.32102251517044</speed>
      </trkpt>
      <trkpt lat="47.7896" lon="9.55191">
        <ele>524</ele>
        <time>2011-04-16T00:55:42Z</time>
        <course>125.83532194625</course>
        <speed>8.32122195703539</speed>
      </trkpt>
      <trkpt lat="47.78935" lon="9.55235">
        <ele>524</ele>
        <time>2011-04-16T00:55:47Z</time>
        <course>108.711907111919</course>
        <speed>8.32071666574184</speed>
      </trkpt>
      <trkpt lat="47.78915" lon="9.5531">
        <ele>522</ele>
        <time>2011-04-16T00:55:55Z</time>
        <course>97.0382937848072</course>
        <speed>8.31910239103715</speed>
      </trkpt>
      <trkpt lat="47.78888" lon="9.55586">
        <ele>519</ele>
        <time>2011-04-16T00:56:20Z</time>
        <course>105.34955554701</course>
        <speed>8.31475981967143</speed>
      </trkpt>
      <trkpt lat="47.78872" lon="9.5566">
        <ele>517</ele>
        <time>2011-04-16T00:56:27Z</time>
        <course>121.414986343415</course>
        <speed>8.31935843050519</speed>
      </trkpt>
      <trkpt lat="47.78821" lon="9.55766">
        <ele>516</ele>
        <time>2011-04-16T00:56:38Z</time>
        <course>112.098323491011</course>
        <speed>8.31933565643277</speed>
      </trkpt>
      <trkpt lat="47.78789" lon="9.55866">
        <ele>513</ele>
        <time>2011-04-16T00:56:48Z</time>
        <course>99.8527668283921</course>
        <speed>8.31733597544538</speed>
      </trkpt>
      <trkpt lat="47.78772" lon="9.5599">
        <ele>510</ele>
        <time>2011-04-16T00:57:00Z</time>
        <course>122.402308293438</course>
        <speed>8.30311713772471</speed>
      </trkpt>
      <trkpt lat="47.7876" lon="9.56014">
        <ele>508</ele>
        <time>2011-04-16T00:57:02Z</time>
        <course>155.126012929191</course>
        <speed>8.31617910701117</speed>
      </trkpt>
      <trkpt lat="47.78692" lon="9.56054">
        <ele>505</ele>
        <time>2011-04-16T00:57:12Z</time>
        <course>137.483282253464</course>
        <speed>8.31759537015788</speed>
      </trkpt>
      <trkpt lat="47.78649" lon="9.56104">
        <ele>503</ele>
        <time>2011-04-16T00:57:19Z</time>
        <course>111.396711675257</course>
        <speed>8.32418199316194</speed>
      </trkpt>
      <trkpt lat="47.78632" lon="9.56159">
        <ele>502</ele>
        <time>2011-04-16T00:57:25Z</time>
        <course>98.4179681862162</course>
        <speed>8.32419288710399</speed>
      </trkpt>
      <trkpt lat="47.78623" lon="9.56236">
        <ele>501</ele>
        <time>2011-04-16T00:57:32Z</time>
        <course>87.5280788906878</course>
        <speed>8.32192980178661</speed>
      </trkpt>
      <trkpt lat="47.78625" lon="9.56295">
        <ele>501</ele>
        <time>2011-04-16T00:57:37Z</time>
        <course>113.012613040602</course>
        <speed>4.73427708454932</speed>
      </trkpt>
      <trkpt lat="47.78572" lon="9.56453">
        <ele>506</ele>
        <time>2011-04-16T00:58:05Z</time>
        <course>107.747531856804</course>
        <speed>8.31507577839862</speed>
      </trkpt>
      <trkpt lat="47.78549" lon="9.56544">
        <ele>505</ele>
        <time>2011-04-16T00:58:14Z</time>
        <course>99.9337602597561</course>
        <speed>8.31851818199167</speed>
      </trkpt>
      <trkpt lat="47.78502" lon="9.56882">
        <ele>505</ele>
        <time>2011-04-16T00:58:45Z</time>
        <course>93.8729389383832</course>
        <speed>8.32222959333959</speed>
      </trkpt>
      <trkpt lat="47.78499" lon="9.56938">
        <ele>505</ele>
        <time>2011-04-16T00:58:50Z</time>
        <course>84.4222639846167</course>
        <speed>8.32164001136362</speed>
      </trkpt>
      <trkpt lat="47.78504" lon="9.57003">
        <ele>505</ele>
        <time>2011-04-16T00:58:55Z</time>
        <course>109.259280655529</course>
        <speed>8.32958836768072</speed>
      </trkpt>
      <trkpt lat="47.78496" lon="9.57032">
        <ele>505</ele>
        <time>2011-04-16T00:58:58Z</time>
        <course>83.198131814404</course>
        <speed>8.31849345251951</speed>
      </trkpt>
      <trkpt lat="47.78511" lon="9.57192">
        <ele>503</ele>
        <time>2011-04-16T00:59:13Z</time>
        <course>97.3763330057089</course>
        <speed>8.32087343453661</speed>
      </trkpt>
      <trkpt lat="47.78495" lon="9.57348">
        <ele>502</ele>
        <time>2011-04-16T00:59:27Z</time>
        <course>105.169141779115</course>
        <speed>8.31643697441299</speed>
      </trkpt>
      <trkpt lat="47.78448" lon="9.57567">
        <ele>500</ele>
        <time>2011-04-16T00:59:48Z</time>
        <course>109.674284590439</course>
        <speed>8.31690240408705</speed>
      </trkpt>
      <trkpt lat="47.78422" lon="9.57659">
        <ele>497</ele>
        <time>2011-04-16T00:59:57Z</time>
        <course>104.852594670486</course>
        <speed>8.31750519239134</speed>
      </trkpt>
      <trkpt lat="47.7838" lon="9.57859">
        <ele>493</ele>
        <time>2011-04-16T01:00:15Z</time>
        <course>120.226737262781</course>
        <speed>8.31474652723993</speed>
      </trkpt>
      <trkpt lat="47.78339" lon="9.57948">
        <ele>490</ele>
        <time>2011-04-16T01:00:25Z</time>
        <course>134.446064782207</course>
        <speed>8.31411438764138</speed>
      </trkpt>
      <trkpt lat="47.78301" lon="9.57997">
        <ele>489</ele>
        <time>2011-04-16T01:00:32Z</time>
        <course>145.059754820837</course>
        <speed>8.31876939898281</speed>
      </trkpt>
      <trkpt lat="47.78207" lon="9.5808">
        <ele>484</ele>
        <time>2011-04-16T01:00:46Z</time>
        <course>155.822630532046</course>
        <speed>8.31669288743413</speed>
      </trkpt>
      <trkpt lat="47.7814" lon="9.58118">
        <ele>479</ele>
        <time>2011-04-16T01:00:56Z</time>
        <course>140.952326375723</course>
        <speed>8.31721884338262</speed>
      </trkpt>
      <trkpt lat="47.78099" lon="9.5816">
        <ele>476</ele>
        <time>2011-04-16T01:01:03Z</time>
        <course>121.983182528254</course>
        <speed>8.32093806051326</speed>
      </trkpt>
      <trkpt lat="47.78051" lon="9.58257">
        <ele>472</ele>
        <time>2011-04-16T01:01:13Z</time>
        <course>114.637371868613</course>
        <speed>8.31630684216622</speed>
      </trkpt>
      <trkpt lat="47.78011" lon="9.58367">
        <ele>468</ele>
        <time>2011-04-16T01:01:25Z</time>
        <course>106.671422543016</course>
        <speed>8.31462831272305</speed>
      </trkpt>
      <trkpt lat="47.77992" lon="9.58447">
        <ele>466</ele>
        <time>2011-04-16T01:01:32Z</time>
        <course>95.7891367144807</course>
        <speed>8.3189855981254</speed>
      </trkpt>
      <trkpt lat="47.77982" lon="9.58571">
        <ele>465</ele>
        <time>2011-04-16T01:01:43Z</time>
        <course>75.2441381219959</course>
        <speed>8.32035114788916</speed>
      </trkpt>
      <trkpt lat="47.78012" lon="9.58715">
        <ele>464</ele>
        <time>2011-04-16T01:01:57Z</time>
        <course>51.2129492562105</course>
        <speed>8.31786660737679</speed>
      </trkpt>
      <trkpt lat="47.78054" lon="9.58781">
        <ele>464</ele>
        <time>2011-04-16T01:02:05Z</time>
        <course>73.5738364914922</course>
        <speed>8.32031009883123</speed>
      </trkpt>
      <trkpt lat="47.78068" lon="9.58841">
        <ele>464</ele>
        <time>2011-04-16T01:02:11Z</time>
        <course>82.2348900347685</course>
        <speed>8.31765768649447</speed>
      </trkpt>
      <trkpt lat="47.78088" lon="9.59027">
        <ele>464</ele>
        <time>2011-04-16T01:02:28Z</time>
        <course>161.475150947278</course>
        <speed>8.32023841098426</speed>
      </trkpt>
      <trkpt lat="47.78062" lon="9.59038">
        <ele>463</ele>
        <time>2011-04-16T01:02:31Z</time>
        <course>174.344799938021</course>
        <speed>8.31786003360821</speed>
      </trkpt>
      <trkpt lat="47.7803" lon="9.59042">
        <ele>462</ele>
        <time>2011-04-16T01:02:36Z</time>
        <course>165.205596305449</course>
        <speed>8.33220512938996</speed>
      </trkpt>
      <trkpt lat="47.78009" lon="9.59049">
        <ele>462</ele>
        <time>2011-04-16T01:02:39Z</time>
        <course>111.521758580223</course>
        <speed>8.33920739197207</speed>
      </trkpt>
      <trkpt lat="47.78004" lon="9.59065">
        <ele>462</ele>
        <time>2011-04-16T01:02:40Z</time>
        <course>74.8484008424897</course>
        <speed>8.32148520703758</speed>
      </trkpt>
      <trkpt lat="47.78025" lon="9.59163">
        <ele>461</ele>
        <time>2011-04-16T01:02:49Z</time>
        <course>89.9839165471507</course>
        <speed>8.31675129835764</speed>
      </trkpt>
      <trkpt lat="47.78025" lon="9.59255">
        <ele>458</ele>
        <time>2011-04-16T01:02:58Z</time>
        <course>62.5843067932072</course>
        <speed>8.32038449563407</speed>
      </trkpt>
      <trkpt lat="47.78048" lon="9.59311">
        <ele>456</ele>
        <time>2011-04-16T01:03:04Z</time>
        <course>87.6938124653925</course>
        <speed>8.32055239580598</speed>
      </trkpt>
      <trkpt lat="47.7805" lon="9.59374">
        <ele>452</ele>
        <time>2011-04-16T01:03:09Z</time>
        <course>80.5765555454619</course>
        <speed>8.31680376151168</speed>
      </trkpt>
      <trkpt lat="47.78066" lon="9.59496">
        <ele>446</ele>
        <time>2011-04-16T01:03:20Z</time>
        <course>73.4211427073323</course>
        <speed>8.31752549782994</speed>
      </trkpt>
      <trkpt lat="47.78106" lon="9.59666">
        <ele>437</ele>
        <time>2011-04-16T01:03:36Z</time>
        <course>64.5217798683506</course>
        <speed>8.31661402957785</speed>
      </trkpt>
      <trkpt lat="47.78129" lon="9.59727">
        <ele>435</ele>
        <time>2011-04-16T01:03:43Z</time>
        <course>143.299356626726</course>
        <speed>8.31932357615406</speed>
      </trkpt>
      <trkpt lat="47.78078" lon="9.59775">
        <ele>432</ele>
        <time>2011-04-16T01:03:51Z</time>
        <course>178.739163680874</course>
        <speed>8.31812230651872</speed>
      </trkpt>
      <trkpt lat="47.78006" lon="9.59777">
        <ele>430</ele>
        <time>2011-04-16T01:04:00Z</time>
        <course>147.787800618854</course>
        <speed>8.31327802332733</speed>
      </trkpt>
      <trkpt lat="47.77967" lon="9.59808">
        <ele>428</ele>
        <time>2011-04-16T01:04:06Z</time>
        <course>177.546150504293</course>
        <speed>8.31141701894471</speed>
      </trkpt>
      <trkpt lat="47.7793" lon="9.5981">
        <ele>428</ele>
        <time>2011-04-16T01:04:11Z</time>
        <course>138.003529903667</course>
        <speed>8.31358124527925</speed>
      </trkpt>
      <trkpt lat="47.77893" lon="9.59852">
        <ele>427</ele>
        <time>2011-04-16T01:04:18Z</time>
        <course>86.7156558546062</course>
        <speed>8.31583130808451</speed>
      </trkpt>
      <trkpt lat="47.77894" lon="9.59874">
        <ele>426</ele>
        <time>2011-04-16T01:04:20Z</time>
        <course>124.17365637808</course>
        <speed>8.29286382637656</speed>
      </trkpt>
      <trkpt lat="47.77887" lon="9.59887">
        <ele>426</ele>
        <time>2011-04-16T01:04:21Z</time>
        <course>104.760277857946</course>
        <speed>8.31749873703066</speed>
      </trkpt>
      <trkpt lat="47.7786" lon="9.60016">
        <ele>426</ele>
        <time>2011-04-16T01:04:33Z</time>
        <course>112.786177701592</course>
        <speed>7.06059566374546</speed>
      </trkpt>
      <trkpt lat="47.77848" lon="9.60052">
        <ele>426</ele>
        <time>2011-04-16T01:04:37Z</time>
        <course>97.9667142586609</course>
        <speed>7.05883296148744</speed>
      </trkpt>
      <trkpt lat="47.77844" lon="9.60088">
        <ele>426</ele>
        <time>2011-04-16T01:04:41Z</time>
        <course>170.000472750555</course>
        <speed>7.04647835864624</speed>
      </trkpt>
      <trkpt lat="47.77826" lon="9.60092">
        <ele>426</ele>
        <time>2011-04-16T01:04:44Z</time>
        <course>119.407821702684</course>
        <speed>7.05766886886573</speed>
      </trkpt>
      <trkpt lat="47.77809" lon="9.6013">
        <ele>427</ele>
        <time>2011-04-16T01:04:49Z</time>
        <course>105.10386201468</course>
        <speed>8.3127840420872</speed>
      </trkpt>
      <trkpt lat="47.778" lon="9.60172">
        <ele>427</ele>
        <time>2011-04-16T01:04:53Z</time>
        <course>128.21872141772</course>
        <speed>8.32468934073701</speed>
      </trkpt>
      <trkpt lat="47.7779" lon="9.60188">
        <ele>427</ele>
        <time>2011-04-16T01:04:55Z</time>
        <course>208.635380933019</course>
        <speed>8.31987742364023</speed>
      </trkpt>
      <trkpt lat="47.7771" lon="9.60133">
        <ele>427</ele>
        <time>2011-04-16T01:05:07Z</time>
        <course>199.767185192912</course>
        <speed>8.32413261307426</speed>
      </trkpt>
      <trkpt lat="47.77668" lon="9.60114">
        <ele>427</ele>
        <time>2011-04-16T01:05:13Z</time>
        <course>219.766445982079</course>
        <speed>8.32088211300271</speed>
      </trkpt>
      <trkpt lat="47.77604" lon="9.60047">
        <ele>427</ele>
        <time>2011-04-16T01:05:23Z</time>
        <course>198.505175648982</course>
        <speed>8.31126636619846</speed>
      </trkpt>
      <trkpt lat="47.77585" lon="9.60039">
        <ele>427</ele>
        <time>2011-04-16T01:05:26Z</time>
        <course>147.062634119621</course>
        <speed>8.32262720922945</speed>
      </trkpt>
      <trkpt lat="47.77558" lon="9.60061">
        <ele>427</ele>
        <time>2011-04-16T01:05:30Z</time>
        <course>133.649025880929</course>
        <speed>8.31021964057642</speed>
      </trkpt>
      <trkpt lat="47.77536" lon="9.6009">
        <ele>427</ele>
        <time>2011-04-16T01:05:34Z</time>
        <course>195.045652257504</course>
        <speed>8.31573323957137</speed>
      </trkpt>
      <trkpt lat="47.77462" lon="9.60065">
        <ele>427</ele>
        <time>2011-04-16T01:05:44Z</time>
        <course>125.682590303927</course>
        <speed>7.37815134323154</speed>
      </trkpt>
      <trkpt lat="47.77454" lon="9.60079">
        <ele>427</ele>
        <time>2011-04-16T01:05:46Z</time>
        <course>101.577719180342</course>
        <speed>7.37643091714576</speed>
      </trkpt>
      <trkpt lat="47.77438" lon="9.60177">
        <ele>427</ele>
        <time>2011-04-16T01:05:56Z</time>
        <course>94.022664986114</course>
        <speed>7.36968208442805</speed>
      </trkpt>
      <trkpt lat="47.77433" lon="9.60266">
        <ele>428</ele>
        <time>2011-04-16T01:06:05Z</time>
        <course>86.0623131180812</course>
        <speed>7.04198238000221</speed>
      </trkpt>
      <trkpt lat="47.77441" lon="9.60413">
        <ele>429</ele>
        <time>2011-04-16T01:06:21Z</time>
        <course>91.1589947576625</course>
        <speed>8.31521043647314</speed>
      </trkpt>
      <trkpt lat="47.77439" lon="9.60535">
        <ele>429</ele>
        <time>2011-04-16T01:06:31Z</time>
        <course>111.436590267474</course>
        <speed>8.33995909104004</speed>
      </trkpt>
      <trkpt lat="47.77434" lon="9.60551">
        <ele>429</ele>
        <time>2011-04-16T01:06:33Z</time>
        <course>193.475184893009</course>
        <speed>8.31996833958003</speed>
      </trkpt>
      <trkpt lat="47.77311" lon="9.60514">
        <ele>429</ele>
        <time>2011-04-16T01:06:50Z</time>
        <course>193.475184893009</course>
        <speed>8.31996833958003</speed>
      </trkpt>
      <trkpt lat="47.77311" lon="9.60514">
        <ele>429</ele>
        <time>2011-04-16T01:06:51Z</time>
        <course>38.529773846212</course>
        <speed>8.32181731835271</speed>
      </trkpt>
      <trkpt lat="47.77345" lon="9.60548">
        <ele>429</ele>
        <time>2011-04-16T01:06:56Z</time>
        <course>38.529773846212</course>
        <speed>8.32181731835271</speed>
      </trkpt>
    </trkseg>
  </trk>
</gpx>